sensor_id;sensor_type;location;lat;lon;timestamp;pressure;altitude;pressure_sealevel;temperature;humidity
54262;BME280;40174;52.364;6.452;2023-04-08T00:00:09;102009.56;;;3.49;100.00
54262;BME280;40174;52.364;6.452;2023-04-08T00:02:38;102007.88;;;3.48;100.00
54262;BME280;40174;52.364;6.452;2023-04-08T00:05:04;102014.13;;;3.43;100.00
54262;BME280;40174;52.364;6.452;2023-04-08T00:07:31;102008.97;;;3.41;100.00
54262;BME280;40174;52.364;6.452;2023-04-08T00:09:57;102011.75;;;3.37;100.00
54262;BME280;40174;52.364;6.452;2023-04-08T00:12:24;102008.41;;;3.31;100.00
54262;BME280;40174;52.364;6.452;2023-04-08T00:14:50;102012.03;;;3.27;100.00
54262;BME280;40174;52.364;6.452;2023-04-08T00:17:18;102011.22;;;3.25;100.00
54262;BME280;40174;52.364;6.452;2023-04-08T00:19:45;102008.75;;;3.21;100.00
54262;BME280;40174;52.364;6.452;2023-04-08T00:22:11;102013.19;;;3.17;100.00
54262;BME280;40174;52.364;6.452;2023-04-08T00:24:39;102008.22;;;3.09;100.00
54262;BME280;40174;52.364;6.452;2023-04-08T00:27:05;102014.34;;;3.08;100.00
54262;BME280;40174;52.364;6.452;2023-04-08T00:29:32;102021.31;;;3.08;100.00
54262;BME280;40174;52.364;6.452;2023-04-08T00:31:58;102015.38;;;3.03;100.00
54262;BME280;40174;52.364;6.452;2023-04-08T00:34:26;102022.47;;;2.98;100.00
54262;BME280;40174;52.364;6.452;2023-04-08T00:36:53;102020.84;;;2.94;100.00
54262;BME280;40174;52.364;6.452;2023-04-08T00:39:20;102025.34;;;2.90;100.00
54262;BME280;40174;52.364;6.452;2023-04-08T00:41:46;102019.28;;;2.88;100.00
54262;BME280;40174;52.364;6.452;2023-04-08T00:44:13;102033.31;;;2.85;100.00
54262;BME280;40174;52.364;6.452;2023-04-08T00:46:39;102029.03;;;2.83;100.00
54262;BME280;40174;52.364;6.452;2023-04-08T00:49:06;102034.41;;;2.77;100.00
54262;BME280;40174;52.364;6.452;2023-04-08T00:51:33;102036.22;;;2.75;100.00
54262;BME280;40174;52.364;6.452;2023-04-08T00:54:01;102032.78;;;2.73;100.00
54262;BME280;40174;52.364;6.452;2023-04-08T00:56:28;102037.22;;;2.69;100.00
54262;BME280;40174;52.364;6.452;2023-04-08T00:58:55;102035.53;;;2.68;100.00
54262;BME280;40174;52.364;6.452;2023-04-08T01:01:24;102043.50;;;2.63;100.00
54262;BME280;40174;52.364;6.452;2023-04-08T01:03:55;102029.66;;;2.60;100.00
54262;BME280;40174;52.364;6.452;2023-04-08T01:06:25;102042.78;;;2.58;100.00
54262;BME280;40174;52.364;6.452;2023-04-08T01:08:57;102042.91;;;2.54;100.00
54262;BME280;40174;52.364;6.452;2023-04-08T01:11:24;102041.25;;;2.49;100.00
54262;BME280;40174;52.364;6.452;2023-04-08T01:13:52;102041.28;;;2.48;100.00
54262;BME280;40174;52.364;6.452;2023-04-08T01:16:20;102032.72;;;2.44;100.00
54262;BME280;40174;52.364;6.452;2023-04-08T01:18:47;102036.19;;;2.43;100.00
54262;BME280;40174;52.364;6.452;2023-04-08T01:21:15;102035.47;;;2.38;100.00
54262;BME280;40174;52.364;6.452;2023-04-08T01:23:45;102036.41;;;2.36;100.00
54262;BME280;40174;52.364;6.452;2023-04-08T01:26:21;102039.94;;;2.33;100.00
54262;BME280;40174;52.364;6.452;2023-04-08T01:28:50;102038.25;;;2.32;100.00
54262;BME280;40174;52.364;6.452;2023-04-08T01:31:17;102046.19;;;2.27;100.00
54262;BME280;40174;52.364;6.452;2023-04-08T01:33:44;102045.38;;;2.25;100.00
54262;BME280;40174;52.364;6.452;2023-04-08T01:36:11;102042.88;;;2.21;100.00
54262;BME280;40174;52.364;6.452;2023-04-08T01:38:37;102041.19;;;2.20;100.00
54262;BME280;40174;52.364;6.452;2023-04-08T01:41:04;102045.63;;;2.16;100.00
54262;BME280;40174;52.364;6.452;2023-04-08T01:43:34;102042.19;;;2.14;100.00
54262;BME280;40174;52.364;6.452;2023-04-08T01:46:03;102043.13;;;2.12;100.00
54262;BME280;40174;52.364;6.452;2023-04-08T01:48:30;102047.50;;;2.11;100.00
54262;BME280;40174;52.364;6.452;2023-04-08T01:50:57;102046.72;;;2.06;100.00
54262;BME280;40174;52.364;6.452;2023-04-08T01:53:25;102051.13;;;2.04;100.00
54262;BME280;40174;52.364;6.452;2023-04-08T01:55:54;102053.75;;;2.04;100.00
54262;BME280;40174;52.364;6.452;2023-04-08T01:58:22;102057.25;;;2.03;100.00
54262;BME280;40174;52.364;6.452;2023-04-08T02:00:51;102053.91;;;1.98;100.00
54262;BME280;40174;52.364;6.452;2023-04-08T02:03:19;102053.13;;;1.94;100.00
54262;BME280;40174;52.364;6.452;2023-04-08T02:05:48;102047.09;;;1.92;100.00
54262;BME280;40174;52.364;6.452;2023-04-08T02:08:14;102050.63;;;1.90;100.00
54262;BME280;40174;52.364;6.452;2023-04-08T02:10:41;102056.75;;;1.89;100.00
54262;BME280;40174;52.364;6.452;2023-04-08T02:13:07;102056.03;;;1.82;100.00
54262;BME280;40174;52.364;6.452;2023-04-08T02:15:34;102064.72;;;1.82;100.00
54262;BME280;40174;52.364;6.452;2023-04-08T02:18:04;102068.25;;;1.80;100.00
54262;BME280;40174;52.364;6.452;2023-04-08T02:20:36;102065.78;;;1.74;100.00
54262;BME280;40174;52.364;6.452;2023-04-08T02:23:04;102063.19;;;1.74;100.00
54262;BME280;40174;52.364;6.452;2023-04-08T02:25:33;102071.00;;;1.74;100.00
54262;BME280;40174;52.364;6.452;2023-04-08T02:28:01;102071.09;;;1.71;100.00
54262;BME280;40174;52.364;6.452;2023-04-08T02:30:29;102063.31;;;1.67;100.00
54262;BME280;40174;52.364;6.452;2023-04-08T02:32:56;102073.81;;;1.64;100.00
54262;BME280;40174;52.364;6.452;2023-04-08T02:35:24;102073.84;;;1.63;100.00
54262;BME280;40174;52.364;6.452;2023-04-08T02:37:52;102069.56;;;1.60;100.00
54262;BME280;40174;52.364;6.452;2023-04-08T02:40:22;102073.09;;;1.59;100.00
54262;BME280;40174;52.364;6.452;2023-04-08T02:42:49;102074.88;;;1.57;100.00
54262;BME280;40174;52.364;6.452;2023-04-08T02:45:16;102081.84;;;1.55;100.00
54262;BME280;40174;52.364;6.452;2023-04-08T02:47:42;102068.84;;;1.54;100.00
54262;BME280;40174;52.364;6.452;2023-04-08T02:50:09;102081.06;;;1.52;100.00
54262;BME280;40174;52.364;6.452;2023-04-08T02:52:37;102075.97;;;1.45;100.00
54262;BME280;40174;52.364;6.452;2023-04-08T02:55:04;102075.09;;;1.47;100.00
54262;BME280;40174;52.364;6.452;2023-04-08T02:57:33;102079.47;;;1.46;100.00
54262;BME280;40174;52.364;6.452;2023-04-08T03:00:01;102077.75;;;1.43;100.00
54262;BME280;40174;52.364;6.452;2023-04-08T03:02:28;102082.13;;;1.43;100.00
54262;BME280;40174;52.364;6.452;2023-04-08T03:04:54;102082.22;;;1.38;100.00
54262;BME280;40174;52.364;6.452;2023-04-08T03:07:20;102089.19;;;1.38;100.00
54262;BME280;40174;52.364;6.452;2023-04-08T03:09:49;102084.88;;;1.37;100.00
54262;BME280;40174;52.364;6.452;2023-04-08T03:12:16;102097.06;;;1.35;100.00
54262;BME280;40174;52.364;6.452;2023-04-08T03:14:42;102098.03;;;1.31;100.00
54262;BME280;40174;52.364;6.452;2023-04-08T03:17:08;102102.38;;;1.30;100.00
54262;BME280;40174;52.364;6.452;2023-04-08T03:19:35;102095.44;;;1.29;100.00
54262;BME280;40174;52.364;6.452;2023-04-08T03:22:01;102101.59;;;1.25;100.00
54262;BME280;40174;52.364;6.452;2023-04-08T03:24:27;102099.00;;;1.25;100.00
54262;BME280;40174;52.364;6.452;2023-04-08T03:26:55;102100.75;;;1.24;100.00
54262;BME280;40174;52.364;6.452;2023-04-08T03:29:22;102107.84;;;1.18;100.00
54262;BME280;40174;52.364;6.452;2023-04-08T03:31:48;102104.38;;;1.17;100.00
54262;BME280;40174;52.364;6.452;2023-04-08T03:34:14;102105.25;;;1.16;100.00
54262;BME280;40174;52.364;6.452;2023-04-08T03:36:41;102114.81;;;1.17;100.00
54262;BME280;40174;52.364;6.452;2023-04-08T03:39:07;102107.03;;;1.14;100.00
54262;BME280;40174;52.364;6.452;2023-04-08T03:41:34;102109.63;;;1.14;100.00
54262;BME280;40174;52.364;6.452;2023-04-08T03:44:02;102114.03;;;1.12;100.00
54262;BME280;40174;52.364;6.452;2023-04-08T03:46:28;102111.50;;;1.09;100.00
54262;BME280;40174;52.364;6.452;2023-04-08T03:48:54;102108.97;;;1.06;100.00
54262;BME280;40174;52.364;6.452;2023-04-08T03:51:21;102114.19;;;1.03;100.00
54262;BME280;40174;52.364;6.452;2023-04-08T03:53:47;102110.75;;;1.02;100.00
54262;BME280;40174;52.364;6.452;2023-04-08T03:56:14;102113.34;;;1.02;100.00
54262;BME280;40174;52.364;6.452;2023-04-08T03:58:41;102112.50;;;1.02;100.00
54262;BME280;40174;52.364;6.452;2023-04-08T04:01:08;102108.22;;;0.99;100.00
54262;BME280;40174;52.364;6.452;2023-04-08T04:03:35;102115.19;;;0.99;100.00
54262;BME280;40174;52.364;6.452;2023-04-08T04:06:01;102112.56;;;0.99;100.00
54262;BME280;40174;52.364;6.452;2023-04-08T04:08:28;102115.22;;;0.96;100.00
54262;BME280;40174;52.364;6.452;2023-04-08T04:10:54;102115.28;;;0.93;100.00
54262;BME280;40174;52.364;6.452;2023-04-08T04:13:21;102114.38;;;0.94;100.00
54262;BME280;40174;52.364;6.452;2023-04-08T04:15:47;102116.16;;;0.93;100.00
54262;BME280;40174;52.364;6.452;2023-04-08T04:18:15;102120.47;;;0.94;100.00
54262;BME280;40174;52.364;6.452;2023-04-08T04:20:41;102116.16;;;0.92;100.00
54262;BME280;40174;52.364;6.452;2023-04-08T04:23:08;102126.63;;;0.90;100.00
54262;BME280;40174;52.364;6.452;2023-04-08T04:25:34;102135.34;;;0.88;100.00
54262;BME280;40174;52.364;6.452;2023-04-08T04:28:01;102137.13;;;0.86;100.00
54262;BME280;40174;52.364;6.452;2023-04-08T04:30:27;102138.00;;;0.85;100.00
54262;BME280;40174;52.364;6.452;2023-04-08T04:32:54;102131.09;;;0.83;100.00
54262;BME280;40174;52.364;6.452;2023-04-08T04:35:23;102140.66;;;0.83;100.00
54262;BME280;40174;52.364;6.452;2023-04-08T04:37:49;102132.78;;;0.85;100.00
54262;BME280;40174;52.364;6.452;2023-04-08T04:40:16;102146.72;;;0.83;100.00
54262;BME280;40174;52.364;6.452;2023-04-08T04:42:42;102144.16;;;0.80;100.00
54262;BME280;40174;52.364;6.452;2023-04-08T04:45:09;102153.78;;;0.77;100.00
54262;BME280;40174;52.364;6.452;2023-04-08T04:47:35;102157.25;;;0.76;100.00
54262;BME280;40174;52.364;6.452;2023-04-08T04:50:02;102152.09;;;0.74;100.00
54262;BME280;40174;52.364;6.452;2023-04-08T04:52:29;102157.31;;;0.73;100.00
54262;BME280;40174;52.364;6.452;2023-04-08T04:54:56;102158.16;;;0.73;100.00
54262;BME280;40174;52.364;6.452;2023-04-08T04:57:22;102159.91;;;0.73;100.00
54262;BME280;40174;52.364;6.452;2023-04-08T04:59:49;102165.97;;;0.73;100.00
54262;BME280;40174;52.364;6.452;2023-04-08T05:02:15;102166.88;;;0.72;100.00
54262;BME280;40174;52.364;6.452;2023-04-08T05:04:42;102170.31;;;0.73;100.00
54262;BME280;40174;52.364;6.452;2023-04-08T05:07:08;102163.44;;;0.70;100.00
54262;BME280;40174;52.364;6.452;2023-04-08T05:09:36;102172.06;;;0.72;100.00
54262;BME280;40174;52.364;6.452;2023-04-08T05:12:02;102166.81;;;0.75;100.00
54262;BME280;40174;52.364;6.452;2023-04-08T05:14:29;102166.78;;;0.77;100.00
54262;BME280;40174;52.364;6.452;2023-04-08T05:16:55;102171.94;;;0.80;100.00
54262;BME280;40174;52.364;6.452;2023-04-08T05:19:22;102173.63;;;0.82;100.00
54262;BME280;40174;52.364;6.452;2023-04-08T05:21:48;102176.13;;;0.87;100.00
54262;BME280;40174;52.364;6.452;2023-04-08T05:24:14;102178.66;;;0.92;100.00
54262;BME280;40174;52.364;6.452;2023-04-08T05:26:42;102179.44;;;0.97;100.00
54262;BME280;40174;52.364;6.452;2023-04-08T05:29:08;102180.19;;;1.02;100.00
54262;BME280;40174;52.364;6.452;2023-04-08T05:31:35;102180.94;;;1.10;100.00
54262;BME280;40174;52.364;6.452;2023-04-08T05:34:02;102175.63;;;1.15;100.00
54262;BME280;40174;52.364;6.452;2023-04-08T05:36:28;102179.81;;;1.22;100.00
54262;BME280;40174;52.364;6.452;2023-04-08T05:38:55;102181.44;;;1.28;100.00
54262;BME280;40174;52.364;6.452;2023-04-08T05:41:22;102182.16;;;1.34;100.00
54262;BME280;40174;52.364;6.452;2023-04-08T05:43:50;102182.97;;;1.39;100.00
54262;BME280;40174;52.364;6.452;2023-04-08T05:46:16;102180.19;;;1.45;100.00
54262;BME280;40174;52.364;6.452;2023-04-08T05:48:43;102188.81;;;1.51;100.00
54262;BME280;40174;52.364;6.452;2023-04-08T05:51:12;102191.34;;;1.54;100.00
54262;BME280;40174;52.364;6.452;2023-04-08T05:53:38;102193.94;;;1.54;100.00
54262;BME280;40174;52.364;6.452;2023-04-08T05:56:04;102198.19;;;1.58;100.00
54262;BME280;40174;52.364;6.452;2023-04-08T05:58:31;102198.09;;;1.62;100.00
54262;BME280;40174;52.364;6.452;2023-04-08T06:00:59;102210.19;;;1.66;100.00
54262;BME280;40174;52.364;6.452;2023-04-08T06:03:25;102203.97;;;1.72;100.00
54262;BME280;40174;52.364;6.452;2023-04-08T06:05:52;102210.75;;;1.79;100.00
54262;BME280;40174;52.364;6.452;2023-04-08T06:08:18;102208.03;;;1.85;100.00
54262;BME280;40174;52.364;6.452;2023-04-08T06:10:47;102206.16;;;1.92;100.00
54262;BME280;40174;52.364;6.452;2023-04-08T06:13:13;102206.94;;;1.96;100.00
54262;BME280;40174;52.364;6.452;2023-04-08T06:15:40;102215.53;;;2.01;100.00
54262;BME280;40174;52.364;6.452;2023-04-08T06:18:07;102212.81;;;2.05;100.00
54262;BME280;40174;52.364;6.452;2023-04-08T06:20:34;102224.81;;;2.13;100.00
54262;BME280;40174;52.364;6.452;2023-04-08T06:23:00;102229.91;;;2.19;100.00
54262;BME280;40174;52.364;6.452;2023-04-08T06:25:27;102218.47;;;2.24;100.00
54262;BME280;40174;52.364;6.452;2023-04-08T06:27:53;102226.19;;;2.29;100.00
54262;BME280;40174;52.364;6.452;2023-04-08T06:30:20;102233.09;;;2.32;100.00
54262;BME280;40174;52.364;6.452;2023-04-08T06:32:46;102234.75;;;2.34;100.00
54262;BME280;40174;52.364;6.452;2023-04-08T06:35:14;102236.47;;;2.35;100.00
54262;BME280;40174;52.364;6.452;2023-04-08T06:37:41;102243.34;;;2.39;100.00
54262;BME280;40174;52.364;6.452;2023-04-08T06:40:07;102250.28;;;2.40;100.00
54262;BME280;40174;52.364;6.452;2023-04-08T06:42:34;102249.34;;;2.43;100.00
54262;BME280;40174;52.364;6.452;2023-04-08T06:45:14;102251.88;;;2.46;100.00
54262;BME280;40174;52.364;6.452;2023-04-08T06:47:40;102246.50;;;2.54;100.00
54262;BME280;40174;52.364;6.452;2023-04-08T06:50:07;102250.63;;;2.62;100.00
54262;BME280;40174;52.364;6.452;2023-04-08T06:52:35;102253.91;;;2.69;100.00
54262;BME280;40174;52.364;6.452;2023-04-08T06:55:01;102253.00;;;2.72;100.00
54262;BME280;40174;52.364;6.452;2023-04-08T06:57:28;102252.94;;;2.75;100.00
54262;BME280;40174;52.364;6.452;2023-04-08T06:59:54;102251.25;;;2.72;100.00
54262;BME280;40174;52.364;6.452;2023-04-08T07:02:21;102255.56;;;2.73;100.00
54262;BME280;40174;52.364;6.452;2023-04-08T07:04:47;102265.97;;;2.75;100.00
54262;BME280;40174;52.364;6.452;2023-04-08T07:07:14;102262.56;;;2.73;100.00
54262;BME280;40174;52.364;6.452;2023-04-08T07:09:41;102271.28;;;2.72;100.00
54262;BME280;40174;52.364;6.452;2023-04-08T07:12:10;102272.06;;;2.75;100.00
54262;BME280;40174;52.364;6.452;2023-04-08T07:14:36;102266.69;;;2.81;100.00
54262;BME280;40174;52.364;6.452;2023-04-08T07:17:03;102269.22;;;2.84;100.00
54262;BME280;40174;52.364;6.452;2023-04-08T07:19:30;102273.28;;;2.96;100.00
54262;BME280;40174;52.364;6.452;2023-04-08T07:21:56;102281.88;;;3.01;100.00
54262;BME280;40174;52.364;6.452;2023-04-08T07:24:23;102286.84;;;3.10;100.00
54262;BME280;40174;52.364;6.452;2023-04-08T07:26:50;102283.88;;;3.24;100.00
54262;BME280;40174;52.364;6.452;2023-04-08T07:29:17;102282.03;;;3.28;100.00
54262;BME280;40174;52.364;6.452;2023-04-08T07:31:44;102279.34;;;3.31;100.00
54262;BME280;40174;52.364;6.452;2023-04-08T07:34:10;102281.81;;;3.36;100.00
54262;BME280;40174;52.364;6.452;2023-04-08T07:36:36;102290.31;;;3.44;100.00
54262;BME280;40174;52.364;6.452;2023-04-08T07:39:03;102295.47;;;3.47;100.00
54262;BME280;40174;52.364;6.452;2023-04-08T07:41:29;102298.91;;;3.49;100.00
54262;BME280;40174;52.364;6.452;2023-04-08T07:43:57;102293.47;;;3.57;100.00
54262;BME280;40174;52.364;6.452;2023-04-08T07:46:24;102296.03;;;3.58;100.00
54262;BME280;40174;52.364;6.452;2023-04-08T07:48:50;102304.56;;;3.65;100.00
54262;BME280;40174;52.364;6.452;2023-04-08T07:51:17;102307.69;;;3.78;100.00
54262;BME280;40174;52.364;6.452;2023-04-08T07:53:43;102304.94;;;3.82;100.00
54262;BME280;40174;52.364;6.452;2023-04-08T07:56:10;102303.16;;;3.84;100.00
54262;BME280;40174;52.364;6.452;2023-04-08T07:58:36;102307.44;;;3.87;100.00
54262;BME280;40174;52.364;6.452;2023-04-08T08:01:12;102297.69;;;3.92;100.00
54262;BME280;40174;52.364;6.452;2023-04-08T08:03:39;102304.53;;;3.96;100.00
54262;BME280;40174;52.364;6.452;2023-04-08T08:06:06;102309.59;;;4.02;100.00
54262;BME280;40174;52.364;6.452;2023-04-08T08:08:32;102306.75;;;4.10;100.00
54262;BME280;40174;52.364;6.452;2023-04-08T08:11:00;102314.25;;;4.22;100.00
54262;BME280;40174;52.364;6.452;2023-04-08T08:13:26;102310.56;;;4.28;100.00
54262;BME280;40174;52.364;6.452;2023-04-08T08:15:53;102316.50;;;4.34;100.00
54262;BME280;40174;52.364;6.452;2023-04-08T08:18:21;102324.16;;;4.41;100.00
54262;BME280;40174;52.364;6.452;2023-04-08T08:20:47;102327.34;;;4.50;100.00
54262;BME280;40174;52.364;6.452;2023-04-08T08:23:14;102321.81;;;4.59;100.00
54262;BME280;40174;52.364;6.452;2023-04-08T08:25:40;102319.81;;;4.68;100.00
54262;BME280;40174;52.364;6.452;2023-04-08T08:28:06;102313.47;;;4.75;100.00
54262;BME280;40174;52.364;6.452;2023-04-08T08:30:33;102312.13;;;4.90;100.00
54262;BME280;40174;52.364;6.452;2023-04-08T08:32:59;102323.97;;;5.02;100.00
54262;BME280;40174;52.364;6.452;2023-04-08T08:35:27;102323.41;;;5.18;100.00
54262;BME280;40174;52.364;6.452;2023-04-08T08:37:53;102328.72;;;5.42;100.00
54262;BME280;40174;52.364;6.452;2023-04-08T08:40:20;102331.44;;;5.64;100.00
54262;BME280;40174;52.364;6.452;2023-04-08T08:42:50;102326.22;;;5.88;100.00
54262;BME280;40174;52.364;6.452;2023-04-08T08:45:17;102322.81;;;6.09;100.00
54262;BME280;40174;52.364;6.452;2023-04-08T08:47:44;102319.00;;;6.18;100.00
54262;BME280;40174;52.364;6.452;2023-04-08T08:50:10;102323.63;;;6.35;100.00
54262;BME280;40174;52.364;6.452;2023-04-08T08:52:38;102332.53;;;6.53;100.00
54262;BME280;40174;52.364;6.452;2023-04-08T08:55:05;102333.88;;;6.63;100.00
54262;BME280;40174;52.364;6.452;2023-04-08T08:57:31;102336.88;;;6.98;100.00
54262;BME280;40174;52.364;6.452;2023-04-08T08:59:58;102342.84;;;7.01;100.00
54262;BME280;40174;52.364;6.452;2023-04-08T09:02:25;102342.19;;;7.17;100.00
54262;BME280;40174;52.364;6.452;2023-04-08T09:04:56;102335.56;;;7.28;100.00
54262;BME280;40174;52.364;6.452;2023-04-08T09:07:23;102338.81;;;7.56;100.00
54262;BME280;40174;52.364;6.452;2023-04-08T09:09:52;102346.69;;;7.76;100.00
54262;BME280;40174;52.364;6.452;2023-04-08T09:12:19;102336.78;;;7.81;100.00
54262;BME280;40174;52.364;6.452;2023-04-08T09:14:45;102347.47;;;7.78;100.00
54262;BME280;40174;52.364;6.452;2023-04-08T09:17:12;102354.38;;;7.81;100.00
54262;BME280;40174;52.364;6.452;2023-04-08T09:19:39;102347.97;;;7.86;100.00
54262;BME280;40174;52.364;6.452;2023-04-08T09:22:05;102345.13;;;7.91;100.00
54262;BME280;40174;52.364;6.452;2023-04-08T09:24:32;102358.59;;;8.04;100.00
54262;BME280;40174;52.364;6.452;2023-04-08T09:27:00;102363.09;;;8.21;100.00
54262;BME280;40174;52.364;6.452;2023-04-08T09:29:26;102350.50;;;8.27;100.00
54262;BME280;40174;52.364;6.452;2023-04-08T09:31:53;102357.81;;;8.40;100.00
54262;BME280;40174;52.364;6.452;2023-04-08T09:34:19;102360.63;;;8.56;100.00
54262;BME280;40174;52.364;6.452;2023-04-08T09:36:47;102359.03;;;8.70;100.00
54262;BME280;40174;52.364;6.452;2023-04-08T09:39:13;102357.44;;;8.85;100.00
54262;BME280;40174;52.364;6.452;2023-04-08T09:41:40;102356.38;;;9.07;100.00
54262;BME280;40174;52.364;6.452;2023-04-08T09:44:09;102371.22;;;9.27;100.00
54262;BME280;40174;52.364;6.452;2023-04-08T09:46:38;102367.56;;;9.47;100.00
54262;BME280;40174;52.364;6.452;2023-04-08T09:49:06;102368.72;;;9.58;100.00
54262;BME280;40174;52.364;6.452;2023-04-08T09:51:35;102375.50;;;9.64;100.00
54262;BME280;40174;52.364;6.452;2023-04-08T09:54:02;102380.53;;;9.69;100.00
54262;BME280;40174;52.364;6.452;2023-04-08T09:56:35;102381.91;;;9.76;100.00
54262;BME280;40174;52.364;6.452;2023-04-08T09:59:08;102370.66;;;9.72;100.00
54262;BME280;40174;52.364;6.452;2023-04-08T10:01:37;102376.78;;;9.73;100.00
54262;BME280;40174;52.364;6.452;2023-04-08T10:04:04;102373.38;;;9.71;100.00
54262;BME280;40174;52.364;6.452;2023-04-08T10:06:33;102372.38;;;9.73;100.00
54262;BME280;40174;52.364;6.452;2023-04-08T10:09:00;102368.78;;;9.74;100.00
54262;BME280;40174;52.364;6.452;2023-04-08T10:11:28;102368.00;;;9.72;100.00
54262;BME280;40174;52.364;6.452;2023-04-08T10:13:55;102365.53;;;9.69;100.00
54262;BME280;40174;52.364;6.452;2023-04-08T10:16:23;102363.22;;;9.63;100.00
54262;BME280;40174;52.364;6.452;2023-04-08T10:18:51;102366.00;;;9.60;100.00
54262;BME280;40174;52.364;6.452;2023-04-08T10:21:38;102362.13;;;9.67;100.00
54262;BME280;40174;52.364;6.452;2023-04-08T10:24:08;102363.25;;;9.79;100.00
54262;BME280;40174;52.364;6.452;2023-04-08T10:26:38;102359.53;;;9.83;100.00
54262;BME280;40174;52.364;6.452;2023-04-08T10:31:52;102356.53;;;10.07;100.00
54262;BME280;40174;52.364;6.452;2023-04-08T10:34:18;102366.84;;;10.11;100.00
54262;BME280;40174;52.364;6.452;2023-04-08T10:36:46;102364.72;;;10.18;100.00
54262;BME280;40174;52.364;6.452;2023-04-08T10:39:14;102371.16;;;10.30;100.00
54262;BME280;40174;52.364;6.452;2023-04-08T10:41:40;102364.06;;;10.30;100.00
54262;BME280;40174;52.364;6.452;2023-04-08T10:44:14;102364.78;;;10.34;100.00
54262;BME280;40174;52.364;6.452;2023-04-08T10:46:40;102365.34;;;10.39;100.00
54262;BME280;40174;52.364;6.452;2023-04-08T10:49:09;102363.16;;;10.47;100.00
54262;BME280;40174;52.364;6.452;2023-04-08T10:51:35;102367.94;;;10.56;100.00
54262;BME280;40174;52.364;6.452;2023-04-08T10:54:05;102367.50;;;10.64;100.00
54262;BME280;40174;52.364;6.452;2023-04-08T10:56:32;102361.78;;;10.72;100.00
54262;BME280;40174;52.364;6.452;2023-04-08T10:58:59;102363.97;;;10.79;100.00
54262;BME280;40174;52.364;6.452;2023-04-08T11:01:26;102363.47;;;10.73;100.00
54262;BME280;40174;52.364;6.452;2023-04-08T11:03:54;102365.53;;;10.68;100.00
54262;BME280;40174;52.364;6.452;2023-04-08T11:06:21;102366.19;;;10.71;100.00
54262;BME280;40174;52.364;6.452;2023-04-08T11:08:48;102369.53;;;10.75;100.00
54262;BME280;40174;52.364;6.452;2023-04-08T11:11:15;102363.47;;;10.73;100.00
54262;BME280;40174;52.364;6.452;2023-04-08T11:13:42;102359.22;;;10.70;100.00
54262;BME280;40174;52.364;6.452;2023-04-08T11:16:08;102368.50;;;10.77;100.00
54262;BME280;40174;52.364;6.452;2023-04-08T11:18:35;102372.06;;;10.92;100.00
54262;BME280;40174;52.364;6.452;2023-04-08T11:21:03;102360.63;;;11.08;100.00
54262;BME280;40174;52.364;6.452;2023-04-08T11:23:35;102366.34;;;11.30;100.00
54262;BME280;40174;52.364;6.452;2023-04-08T11:26:01;102361.22;;;11.57;100.00
54262;BME280;40174;52.364;6.452;2023-04-08T11:28:28;102362.38;;;11.96;100.00
54262;BME280;40174;52.364;6.452;2023-04-08T11:30:55;102363.69;;;12.32;100.00
54262;BME280;40174;52.364;6.452;2023-04-08T11:33:23;102367.41;;;12.57;100.00
54262;BME280;40174;52.364;6.452;2023-04-08T11:35:50;102354.47;;;12.52;100.00
54262;BME280;40174;52.364;6.452;2023-04-08T11:38:20;102364.16;;;12.39;100.00
54262;BME280;40174;52.364;6.452;2023-04-08T11:40:52;102354.47;;;12.52;100.00
54262;BME280;40174;52.364;6.452;2023-04-08T11:43:19;102350.59;;;12.71;100.00
54262;BME280;40174;52.364;6.452;2023-04-08T11:45:46;102350.59;;;12.98;100.00
54262;BME280;40174;52.364;6.452;2023-04-08T11:48:13;102353.94;;;13.14;100.00
54262;BME280;40174;52.364;6.452;2023-04-08T11:50:40;102350.09;;;13.45;100.00
54262;BME280;40174;52.364;6.452;2023-04-08T11:53:14;102358.59;;;13.63;100.00
54262;BME280;40174;52.364;6.452;2023-04-08T11:55:41;102371.22;;;13.85;100.00
54262;BME280;40174;52.364;6.452;2023-04-08T11:58:09;102377.94;;;14.04;100.00
54262;BME280;40174;52.364;6.452;2023-04-08T12:00:35;102368.75;;;14.08;98.10
54262;BME280;40174;52.364;6.452;2023-04-08T12:03:02;102371.44;;;13.95;95.13
54262;BME280;40174;52.364;6.452;2023-04-08T12:05:29;102362.41;;;14.10;95.43
54262;BME280;40174;52.364;6.452;2023-04-08T12:07:55;102375.22;;;14.29;97.48
54262;BME280;40174;52.364;6.452;2023-04-08T12:10:22;102381.88;;;14.48;94.44
54262;BME280;40174;52.364;6.452;2023-04-08T12:12:49;102375.88;;;14.70;92.94
54262;BME280;40174;52.364;6.452;2023-04-08T12:15:17;102372.03;;;14.74;92.65
54262;BME280;40174;52.364;6.452;2023-04-08T12:17:43;102369.53;;;14.60;92.02
54262;BME280;40174;52.364;6.452;2023-04-08T12:20:10;102375.44;;;14.76;94.29
54262;BME280;40174;52.364;6.452;2023-04-08T12:22:36;102372.38;;;14.93;93.82
54262;BME280;40174;52.364;6.452;2023-04-08T12:25:03;102377.81;;;14.92;94.06
54262;BME280;40174;52.364;6.452;2023-04-08T12:27:30;102367.78;;;14.71;91.46
54262;BME280;40174;52.364;6.452;2023-04-08T12:29:57;102361.97;;;14.53;92.51
54262;BME280;40174;52.364;6.452;2023-04-08T12:32:25;102372.97;;;14.36;92.11
54262;BME280;40174;52.364;6.452;2023-04-08T12:34:52;102367.81;;;14.22;90.70
54262;BME280;40174;52.364;6.452;2023-04-08T12:37:18;102371.19;;;14.24;93.03
54262;BME280;40174;52.364;6.452;2023-04-08T12:39:45;102362.75;;;14.30;90.37
54262;BME280;40174;52.364;6.452;2023-04-08T12:42:12;102366.38;;;14.42;91.79
54262;BME280;40174;52.364;6.452;2023-04-08T12:44:38;102375.69;;;14.47;90.47
54262;BME280;40174;52.364;6.452;2023-04-08T12:47:05;102361.22;;;14.64;91.83
54262;BME280;40174;52.364;6.452;2023-04-08T12:49:32;102370.09;;;14.76;90.02